sensor_id;sensor_type;location;lat;lon;timestamp;P1;durP1;ratioP1;P2;durP2;ratioP2
47519;SDS011;33252;48.122;11.538;2023-07-31T00:00:53;5.97;;;1.52;;
47519;SDS011;33252;48.122;11.538;2023-07-31T00:03:19;2.42;;;1.50;;
47519;SDS011;33252;48.122;11.538;2023-07-31T00:05:44;3.83;;;1.40;;
47519;SDS011;33252;48.122;11.538;2023-07-31T00:08:10;4.93;;;1.27;;
47519;SDS011;33252;48.122;11.538;2023-07-31T00:10:36;5.25;;;1.25;;
47519;SDS011;33252;48.122;11.538;2023-07-31T00:13:02;2.53;;;1.30;;
47519;SDS011;33252;48.122;11.538;2023-07-31T00:15:27;3.70;;;1.58;;
47519;SDS011;33252;48.122;11.538;2023-07-31T00:17:53;3.03;;;2.15;;
47519;SDS011;33252;48.122;11.538;2023-07-31T00:20:19;2.85;;;1.25;;
47519;SDS011;33252;48.122;11.538;2023-07-31T00:22:44;2.70;;;1.83;;
47519;SDS011;33252;48.122;11.538;2023-07-31T00:25:10;2.78;;;1.35;;
47519;SDS011;33252;48.122;11.538;2023-07-31T00:27:36;2.97;;;1.38;;
47519;SDS011;33252;48.122;11.538;2023-07-31T00:30:01;2.97;;;1.38;;
47519;SDS011;33252;48.122;11.538;2023-07-31T00:32:28;3.67;;;1.23;;
47519;SDS011;33252;48.122;11.538;2023-07-31T00:34:53;3.35;;;1.50;;
47519;SDS011;33252;48.122;11.538;2023-07-31T00:37:19;1.83;;;1.27;;
47519;SDS011;33252;48.122;11.538;2023-07-31T00:39:44;3.17;;;1.10;;
47519;SDS011;33252;48.122;11.538;2023-07-31T00:42:10;3.63;;;1.05;;
47519;SDS011;33252;48.122;11.538;2023-07-31T00:44:38;6.30;;;2.20;;
47519;SDS011;33252;48.122;11.538;2023-07-31T00:47:04;2.75;;;1.30;;
47519;SDS011;33252;48.122;11.538;2023-07-31T00:49:30;2.35;;;1.13;;
47519;SDS011;33252;48.122;11.538;2023-07-31T00:51:56;3.90;;;1.65;;
47519;SDS011;33252;48.122;11.538;2023-07-31T00:54:22;4.97;;;1.30;;
47519;SDS011;33252;48.122;11.538;2023-07-31T00:56:48;4.43;;;1.55;;
47519;SDS011;33252;48.122;11.538;2023-07-31T00:59:17;2.45;;;1.20;;
47519;SDS011;33252;48.122;11.538;2023-07-31T01:01:43;2.40;;;1.58;;
47519;SDS011;33252;48.122;11.538;2023-07-31T01:04:10;2.50;;;1.42;;
47519;SDS011;33252;48.122;11.538;2023-07-31T01:06:44;2.92;;;1.33;;
47519;SDS011;33252;48.122;11.538;2023-07-31T01:09:32;5.68;;;1.63;;
47519;SDS011;33252;48.122;11.538;2023-07-31T01:12:16;2.58;;;1.58;;
47519;SDS011;33252;48.122;11.538;2023-07-31T01:14:52;4.68;;;1.38;;
47519;SDS011;33252;48.122;11.538;2023-07-31T01:17:30;2.83;;;1.20;;
47519;SDS011;33252;48.122;11.538;2023-07-31T01:19:56;2.55;;;1.20;;
47519;SDS011;33252;48.122;11.538;2023-07-31T01:24:55;4.85;;;1.38;;
47519;SDS011;33252;48.122;11.538;2023-07-31T01:27:35;5.18;;;1.55;;
47519;SDS011;33252;48.122;11.538;2023-07-31T01:30:14;4.00;;;1.35;;
47519;SDS011;33252;48.122;11.538;2023-07-31T01:32:42;3.58;;;1.23;;
47519;SDS011;33252;48.122;11.538;2023-07-31T01:35:11;4.60;;;1.55;;
47519;SDS011;33252;48.122;11.538;2023-07-31T01:37:37;2.50;;;1.05;;
47519;SDS011;33252;48.122;11.538;2023-07-31T01:40:03;4.03;;;1.77;;
47519;SDS011;33252;48.122;11.538;2023-07-31T01:42:30;3.38;;;1.48;;
47519;SDS011;33252;48.122;11.538;2023-07-31T01:44:56;3.95;;;1.33;;
47519;SDS011;33252;48.122;11.538;2023-07-31T01:47:22;4.50;;;1.33;;
47519;SDS011;33252;48.122;11.538;2023-07-31T01:49:48;4.53;;;1.30;;
47519;SDS011;33252;48.122;11.538;2023-07-31T01:52:14;2.63;;;1.35;;
47519;SDS011;33252;48.122;11.538;2023-07-31T01:54:40;3.45;;;1.02;;
47519;SDS011;33252;48.122;11.538;2023-07-31T01:57:05;3.25;;;1.52;;
47519;SDS011;33252;48.122;11.538;2023-07-31T01:59:31;2.70;;;1.15;;
47519;SDS011;33252;48.122;11.538;2023-07-31T02:01:57;5.35;;;1.35;;
47519;SDS011;33252;48.122;11.538;2023-07-31T02:04:22;4.72;;;1.45;;
47519;SDS011;33252;48.122;11.538;2023-07-31T02:06:48;4.82;;;1.60;;
47519;SDS011;33252;48.122;11.538;2023-07-31T02:09:14;4.47;;;1.27;;
47519;SDS011;33252;48.122;11.538;2023-07-31T02:11:39;7.32;;;2.10;;
47519;SDS011;33252;48.122;11.538;2023-07-31T02:14:05;5.80;;;1.60;;
47519;SDS011;33252;48.122;11.538;2023-07-31T02:16:30;2.75;;;1.48;;
47519;SDS011;33252;48.122;11.538;2023-07-31T02:18:56;1.83;;;1.20;;
47519;SDS011;33252;48.122;11.538;2023-07-31T02:21:22;3.03;;;1.58;;
47519;SDS011;33252;48.122;11.538;2023-07-31T02:23:47;5.03;;;1.75;;
47519;SDS011;33252;48.122;11.538;2023-07-31T02:26:13;1.83;;;1.08;;
47519;SDS011;33252;48.122;11.538;2023-07-31T02:28:38;4.15;;;1.40;;
47519;SDS011;33252;48.122;11.538;2023-07-31T02:31:04;3.80;;;1.50;;
47519;SDS011;33252;48.122;11.538;2023-07-31T02:33:30;4.28;;;1.23;;
47519;SDS011;33252;48.122;11.538;2023-07-31T02:35:55;2.58;;;1.33;;
47519;SDS011;33252;48.122;11.538;2023-07-31T02:38:21;3.60;;;1.42;;
47519;SDS011;33252;48.122;11.538;2023-07-31T02:40:47;1.90;;;1.17;;
47519;SDS011;33252;48.122;11.538;2023-07-31T02:43:13;2.67;;;1.60;;
47519;SDS011;33252;48.122;11.538;2023-07-31T02:45:39;4.10;;;1.65;;
47519;SDS011;33252;48.122;11.538;2023-07-31T02:48:04;2.72;;;1.70;;
47519;SDS011;33252;48.122;11.538;2023-07-31T02:50:30;4.18;;;1.38;;
47519;SDS011;33252;48.122;11.538;2023-07-31T02:52:57;2.83;;;1.67;;
47519;SDS011;33252;48.122;11.538;2023-07-31T02:55:22;6.82;;;1.70;;
47519;SDS011;33252;48.122;11.538;2023-07-31T02:57:48;3.30;;;1.60;;
47519;SDS011;33252;48.122;11.538;2023-07-31T03:00:14;4.00;;;1.52;;
47519;SDS011;33252;48.122;11.538;2023-07-31T03:02:39;3.25;;;1.55;;
47519;SDS011;33252;48.122;11.538;2023-07-31T03:05:06;3.95;;;1.60;;
47519;SDS011;33252;48.122;11.538;2023-07-31T03:07:32;4.53;;;2.08;;
47519;SDS011;33252;48.122;11.538;2023-07-31T03:09:58;5.75;;;1.83;;
47519;SDS011;33252;48.122;11.538;2023-07-31T03:12:24;5.88;;;2.13;;
47519;SDS011;33252;48.122;11.538;2023-07-31T03:14:49;5.97;;;2.05;;
47519;SDS011;33252;48.122;11.538;2023-07-31T03:17:15;3.15;;;1.70;;
47519;SDS011;33252;48.122;11.538;2023-07-31T03:19:41;3.85;;;2.00;;
47519;SDS011;33252;48.122;11.538;2023-07-31T03:22:06;2.72;;;1.85;;
47519;SDS011;33252;48.122;11.538;2023-07-31T03:24:32;3.22;;;1.80;;
47519;SDS011;33252;48.122;11.538;2023-07-31T03:26:57;4.88;;;2.03;;
47519;SDS011;33252;48.122;11.538;2023-07-31T03:29:23;4.07;;;2.13;;
47519;SDS011;33252;48.122;11.538;2023-07-31T03:31:49;9.95;;;2.60;;
47519;SDS011;33252;48.122;11.538;2023-07-31T03:34:14;5.97;;;2.20;;
47519;SDS011;33252;48.122;11.538;2023-07-31T03:36:40;3.03;;;2.42;;
47519;SDS011;33252;48.122;11.538;2023-07-31T03:39:06;4.25;;;2.08;;
47519;SDS011;33252;48.122;11.538;2023-07-31T03:41:31;3.78;;;2.53;;
47519;SDS011;33252;48.122;11.538;2023-07-31T03:43:57;4.85;;;2.42;;
47519;SDS011;33252;48.122;11.538;2023-07-31T03:46:23;5.43;;;2.20;;
47519;SDS011;33252;48.122;11.538;2023-07-31T03:48:49;5.72;;;2.45;;
47519;SDS011;33252;48.122;11.538;2023-07-31T03:51:15;9.10;;;3.20;;
47519;SDS011;33252;48.122;11.538;2023-07-31T03:53:42;5.03;;;2.47;;
47519;SDS011;33252;48.122;11.538;2023-07-31T03:56:08;4.63;;;2.35;;
47519;SDS011;33252;48.122;11.538;2023-07-31T03:58:33;4.53;;;2.00;;
47519;SDS011;33252;48.122;11.538;2023-07-31T04:01:00;4.55;;;1.98;;
47519;SDS011;33252;48.122;11.538;2023-07-31T04:03:25;3.30;;;1.80;;
47519;SDS011;33252;48.122;11.538;2023-07-31T04:05:53;5.72;;;2.45;;
47519;SDS011;33252;48.122;11.538;2023-07-31T04:08:20;6.50;;;2.15;;
47519;SDS011;33252;48.122;11.538;2023-07-31T04:10:46;3.80;;;1.48;;
47519;SDS011;33252;48.122;11.538;2023-07-31T04:13:12;4.38;;;2.75;;
47519;SDS011;33252;48.122;11.538;2023-07-31T04:15:38;3.85;;;2.00;;
47519;SDS011;33252;48.122;11.538;2023-07-31T04:18:04;4.70;;;2.95;;
47519;SDS011;33252;48.122;11.538;2023-07-31T04:20:30;4.55;;;2.78;;
47519;SDS011;33252;48.122;11.538;2023-07-31T04:22:55;3.45;;;2.20;;
47519;SDS011;33252;48.122;11.538;2023-07-31T04:25:21;4.32;;;2.20;;
47519;SDS011;33252;48.122;11.538;2023-07-31T04:27:47;3.63;;;2.40;;
47519;SDS011;33252;48.122;11.538;2023-07-31T04:30:12;7.80;;;2.50;;
47519;SDS011;33252;48.122;11.538;2023-07-31T04:32:38;3.40;;;2.03;;
47519;SDS011;33252;48.122;11.538;2023-07-31T04:35:04;5.22;;;2.30;;
47519;SDS011;33252;48.122;11.538;2023-07-31T04:37:30;6.32;;;3.30;;
47519;SDS011;33252;48.122;11.538;2023-07-31T04:39:56;6.07;;;2.42;;
47519;SDS011;33252;48.122;11.538;2023-07-31T04:42:22;6.30;;;2.80;;
47519;SDS011;33252;48.122;11.538;2023-07-31T04:44:47;7.82;;;3.03;;
47519;SDS011;33252;48.122;11.538;2023-07-31T04:47:13;4.35;;;2.50;;
47519;SDS011;33252;48.122;11.538;2023-07-31T04:49:39;4.40;;;2.83;;
47519;SDS011;33252;48.122;11.538;2023-07-31T04:52:04;5.93;;;3.72;;
47519;SDS011;33252;48.122;11.538;2023-07-31T04:54:30;5.15;;;3.20;;
47519;SDS011;33252;48.122;11.538;2023-07-31T04:56:56;4.60;;;2.63;;
47519;SDS011;33252;48.122;11.538;2023-07-31T04:59:22;4.38;;;2.70;;
47519;SDS011;33252;48.122;11.538;2023-07-31T05:01:47;6.00;;;2.70;;
47519;SDS011;33252;48.122;11.538;2023-07-31T05:04:13;5.25;;;3.25;;
47519;SDS011;33252;48.122;11.538;2023-07-31T05:06:40;6.43;;;3.05;;
47519;SDS011;33252;48.122;11.538;2023-07-31T05:09:06;5.32;;;2.33;;
47519;SDS011;33252;48.122;11.538;2023-07-31T05:11:32;5.43;;;2.83;;
47519;SDS011;33252;48.122;11.538;2023-07-31T05:13:57;6.72;;;3.03;;
47519;SDS011;33252;48.122;11.538;2023-07-31T05:16:23;6.50;;;2.92;;
47519;SDS011;33252;48.122;11.538;2023-07-31T05:18:48;6.45;;;2.78;;
47519;SDS011;33252;48.122;11.538;2023-07-31T05:21:14;6.75;;;2.10;;
47519;SDS011;33252;48.122;11.538;2023-07-31T05:23:40;4.78;;;2.30;;
47519;SDS011;33252;48.122;11.538;2023-07-31T05:26:05;3.45;;;2.45;;
47519;SDS011;33252;48.122;11.538;2023-07-31T05:28:33;5.93;;;2.10;;
47519;SDS011;33252;48.122;11.538;2023-07-31T05:31:03;3.88;;;2.20;;
47519;SDS011;33252;48.122;11.538;2023-07-31T05:33:29;2.55;;;1.55;;
47519;SDS011;33252;48.122;11.538;2023-07-31T05:35:56;5.63;;;2.92;;
47519;SDS011;33252;48.122;11.538;2023-07-31T05:38:21;3.28;;;2.10;;
47519;SDS011;33252;48.122;11.538;2023-07-31T05:40:47;5.28;;;2.17;;
47519;SDS011;33252;48.122;11.538;2023-07-31T05:43:13;6.35;;;2.10;;
47519;SDS011;33252;48.122;11.538;2023-07-31T05:45:39;3.25;;;1.55;;
47519;SDS011;33252;48.122;11.538;2023-07-31T05:48:06;3.92;;;1.50;;
47519;SDS011;33252;48.122;11.538;2023-07-31T05:50:32;4.45;;;2.10;;
47519;SDS011;33252;48.122;11.538;2023-07-31T05:52:58;5.53;;;2.03;;
47519;SDS011;33252;48.122;11.538;2023-07-31T05:55:24;3.03;;;1.65;;
47519;SDS011;33252;48.122;11.538;2023-07-31T05:57:52;4.03;;;1.73;;
47519;SDS011;33252;48.122;11.538;2023-07-31T06:00:18;2.72;;;1.77;;
47519;SDS011;33252;48.122;11.538;2023-07-31T06:02:43;2.40;;;1.67;;
47519;SDS011;33252;48.122;11.538;2023-07-31T06:05:09;4.32;;;1.50;;
47519;SDS011;33252;48.122;11.538;2023-07-31T06:07:35;3.22;;;1.85;;
47519;SDS011;33252;48.122;11.538;2023-07-31T06:10:01;3.15;;;1.40;;
47519;SDS011;33252;48.122;11.538;2023-07-31T06:12:30;2.17;;;1.55;;
47519;SDS011;33252;48.122;11.538;2023-07-31T06:15:00;4.10;;;2.13;;
47519;SDS011;33252;48.122;11.538;2023-07-31T06:17:26;5.15;;;2.00;;
47519;SDS011;33252;48.122;11.538;2023-07-31T06:19:52;5.65;;;1.77;;
47519;SDS011;33252;48.122;11.538;2023-07-31T06:22:18;2.72;;;1.52;;
47519;SDS011;33252;48.122;11.538;2023-07-31T06:24:43;2.63;;;1.20;;
47519;SDS011;33252;48.122;11.538;2023-07-31T06:27:09;3.08;;;1.73;;
47519;SDS011;33252;48.122;11.538;2023-07-31T06:29:36;3.38;;;1.23;;
47519;SDS011;33252;48.122;11.538;2023-07-31T06:32:01;2.97;;;1.45;;
47519;SDS011;33252;48.122;11.538;2023-07-31T06:34:27;4.60;;;1.63;;
47519;SDS011;33252;48.122;11.538;2023-07-31T06:36:53;3.42;;;1.20;;
47519;SDS011;33252;48.122;11.538;2023-07-31T06:39:19;4.38;;;1.40;;
47519;SDS011;33252;48.122;11.538;2023-07-31T06:41:44;2.47;;;1.27;;
47519;SDS011;33252;48.122;11.538;2023-07-31T06:44:10;3.55;;;1.27;;
47519;SDS011;33252;48.122;11.538;2023-07-31T06:46:36;2.08;;;1.58;;
47519;SDS011;33252;48.122;11.538;2023-07-31T06:49:02;4.18;;;1.10;;
47519;SDS011;33252;48.122;11.538;2023-07-31T06:51:27;1.80;;;1.10;;
47519;SDS011;33252;48.122;11.538;2023-07-31T06:53:53;2.90;;;1.40;;
47519;SDS011;33252;48.122;11.538;2023-07-31T06:56:20;3.47;;;1.67;;
47519;SDS011;33252;48.122;11.538;2023-07-31T06:58:46;4.18;;;1.38;;
47519;SDS011;33252;48.122;11.538;2023-07-31T07:01:12;4.97;;;1.88;;
47519;SDS011;33252;48.122;11.538;2023-07-31T07:03:37;3.08;;;1.35;;
47519;SDS011;33252;48.122;11.538;2023-07-31T07:06:03;3.58;;;1.73;;
47519;SDS011;33252;48.122;11.538;2023-07-31T07:08:28;3.58;;;2.13;;
47519;SDS011;33252;48.122;11.538;2023-07-31T07:10:54;3.92;;;1.60;;
47519;SDS011;33252;48.122;11.538;2023-07-31T07:13:20;4.68;;;1.35;;
47519;SDS011;33252;48.122;11.538;2023-07-31T07:15:50;2.70;;;1.45;;
47519;SDS011;33252;48.122;11.538;2023-07-31T07:18:16;3.53;;;1.40;;
47519;SDS011;33252;48.122;11.538;2023-07-31T07:20:52;3.40;;;1.65;;
47519;SDS011;33252;48.122;11.538;2023-07-31T07:23:19;2.17;;;1.40;;
47519;SDS011;33252;48.122;11.538;2023-07-31T07:25:45;2.03;;;1.23;;
47519;SDS011;33252;48.122;11.538;2023-07-31T07:28:12;2.95;;;1.40;;
47519;SDS011;33252;48.122;11.538;2023-07-31T07:30:38;4.53;;;1.60;;
47519;SDS011;33252;48.122;11.538;2023-07-31T07:33:03;4.65;;;1.80;;
47519;SDS011;33252;48.122;11.538;2023-07-31T07:35:29;5.13;;;1.50;;
47519;SDS011;33252;48.122;11.538;2023-07-31T07:37:55;3.58;;;0.93;;
47519;SDS011;33252;48.122;11.538;2023-07-31T07:40:21;4.40;;;1.30;;
47519;SDS011;33252;48.122;11.538;2023-07-31T07:42:47;3.63;;;1.13;;
47519;SDS011;33252;48.122;11.538;2023-07-31T07:45:12;3.00;;;1.55;;
47519;SDS011;33252;48.122;11.538;2023-07-31T07:47:40;2.97;;;1.77;;
47519;SDS011;33252;48.122;11.538;2023-07-31T07:50:06;3.47;;;1.50;;
47519;SDS011;33252;48.122;11.538;2023-07-31T07:52:32;4.85;;;1.40;;
47519;SDS011;33252;48.122;11.538;2023-07-31T07:54:57;8.10;;;1.85;;
47519;SDS011;33252;48.122;11.538;2023-07-31T07:57:23;3.20;;;1.30;;
47519;SDS011;33252;48.122;11.538;2023-07-31T07:59:49;4.25;;;1.17;;
47519;SDS011;33252;48.122;11.538;2023-07-31T08:02:14;1.92;;;1.15;;
47519;SDS011;33252;48.122;11.538;2023-07-31T08:04:40;2.25;;;1.52;;
47519;SDS011;33252;48.122;11.538;2023-07-31T08:07:06;3.38;;;1.13;;
47519;SDS011;33252;48.122;11.538;2023-07-31T08:09:31;2.60;;;1.00;;
47519;SDS011;33252;48.122;11.538;2023-07-31T08:11:57;4.53;;;1.55;;
47519;SDS011;33252;48.122;11.538;2023-07-31T08:14:27;2.65;;;1.30;;
47519;SDS011;33252;48.122;11.538;2023-07-31T08:16:52;2.85;;;1.50;;
47519;SDS011;33252;48.122;11.538;2023-07-31T08:19:18;4.28;;;1.63;;
47519;SDS011;33252;48.122;11.538;2023-07-31T08:21:44;2.05;;;1.35;;
47519;SDS011;33252;48.122;11.538;2023-07-31T08:24:09;3.00;;;1.42;;
47519;SDS011;33252;48.122;11.538;2023-07-31T08:26:35;4.30;;;1.67;;
47519;SDS011;33252;48.122;11.538;2023-07-31T08:29:01;2.47;;;1.08;;
47519;SDS011;33252;48.122;11.538;2023-07-31T08:31:26;5.63;;;1.35;;
47519;SDS011;33252;48.122;11.538;2023-07-31T08:33:54;4.57;;;1.42;;
47519;SDS011;33252;48.122;11.538;2023-07-31T08:36:20;5.28;;;1.58;;
47519;SDS011;33252;48.122;11.538;2023-07-31T08:38:46;2.72;;;1.20;;
47519;SDS011;33252;48.122;11.538;2023-07-31T08:41:12;5.30;;;1.50;;
47519;SDS011;33252;48.122;11.538;2023-07-31T08:43:42;3.40;;;1.80;;
47519;SDS011;33252;48.122;11.538;2023-07-31T08:46:10;4.82;;;1.55;;
47519;SDS011;33252;48.122;11.538;2023-07-31T08:48:37;3.72;;;1.15;;
47519;SDS011;33252;48.122;11.538;2023-07-31T08:51:03;4.00;;;1.33;;
47519;SDS011;33252;48.122;11.538;2023-07-31T08:53:29;3.53;;;1.20;;
47519;SDS011;33252;48.122;11.538;2023-07-31T08:55:55;1.85;;;1.00;;
47519;SDS011;33252;48.122;11.538;2023-07-31T08:58:23;6.32;;;1.30;;
47519;SDS011;33252;48.122;11.538;2023-07-31T09:00:50;2.13;;;1.27;;
47519;SDS011;33252;48.122;11.538;2023-07-31T09:03:17;3.70;;;1.52;;
47519;SDS011;33252;48.122;11.538;2023-07-31T09:05:46;3.15;;;1.05;;
47519;SDS011;33252;48.122;11.538;2023-07-31T09:08:12;8.20;;;1.85;;
47519;SDS011;33252;48.122;11.538;2023-07-31T09:10:43;3.20;;;2.15;;
47519;SDS011;33252;48.122;11.538;2023-07-31T09:13:13;4.35;;;1.60;;
47519;SDS011;33252;48.122;11.538;2023-07-31T09:15:39;3.63;;;1.17;;
47519;SDS011;33252;48.122;11.538;2023-07-31T09:18:07;4.43;;;1.50;;
47519;SDS011;33252;48.122;11.538;2023-07-31T09:20:33;2.60;;;1.65;;
47519;SDS011;33252;48.122;11.538;2023-07-31T09:23:06;3.08;;;1.50;;
47519;SDS011;33252;48.122;11.538;2023-07-31T09:25:36;4.13;;;1.63;;
47519;SDS011;33252;48.122;11.538;2023-07-31T09:28:04;3.35;;;1.58;;
47519;SDS011;33252;48.122;11.538;2023-07-31T09:30:47;3.08;;;1.30;;
47519;SDS011;33252;48.122;11.538;2023-07-31T09:33:14;6.45;;;1.80;;
47519;SDS011;33252;48.122;11.538;2023-07-31T09:35:40;4.80;;;1.40;;
47519;SDS011;33252;48.122;11.538;2023-07-31T09:38:13;4.70;;;1.48;;
47519;SDS011;33252;48.122;11.538;2023-07-31T09:40:43;1.92;;;1.05;;
47519;SDS011;33252;48.122;11.538;2023-07-31T09:43:11;3.53;;;1.10;;
47519;SDS011;33252;48.122;11.538;2023-07-31T09:45:39;3.63;;;1.67;;
47519;SDS011;33252;48.122;11.538;2023-07-31T09:50:36;1.95;;;1.15;;
47519;SDS011;33252;48.122;11.538;2023-07-31T09:53:03;4.28;;;1.92;;
47519;SDS011;33252;48.122;11.538;2023-07-31T09:55:29;2.55;;;1.23;;
47519;SDS011;33252;48.122;11.538;2023-07-31T09:57:56;5.18;;;2.13;;
47519;SDS011;33252;48.122;11.538;2023-07-31T10:00:22;2.22;;;1.42;;
47519;SDS011;33252;48.122;11.538;2023-07-31T10:02:50;7.53;;;1.80;;
47519;SDS011;33252;48.122;11.538;2023-07-31T10:05:17;4.28;;;1.95;;
47519;SDS011;33252;48.122;11.538;2023-07-31T10:07:54;4.93;;;1.40;;
47519;SDS011;33252;48.122;11.538;2023-07-31T10:10:21;3.85;;;1.45;;
47519;SDS011;33252;48.122;11.538;2023-07-31T10:12:50;2.05;;;1.17;;
47519;SDS011;33252;48.122;11.538;2023-07-31T10:15:17;4.03;;;1.00;;
47519;SDS011;33252;48.122;11.538;2023-07-31T10:17:46;6.30;;;1.63;;
47519;SDS011;33252;48.122;11.538;2023-07-31T10:20:12;3.78;;;1.42;;
47519;SDS011;33252;48.122;11.538;2023-07-31T10:22:39;4.63;;;1.50;;
47519;SDS011;33252;48.122;11.538;2023-07-31T10:25:06;2.17;;;1.20;;
47519;SDS011;33252;48.122;11.538;2023-07-31T10:27:34;3.13;;;1.48;;
47519;SDS011;33252;48.122;11.538;2023-07-31T10:30:03;4.03;;;1.35;;
47519;SDS011;33252;48.122;11.538;2023-07-31T10:32:30;3.83;;;1.45;;
47519;SDS011;33252;48.122;11.538;2023-07-31T10:34:57;4.30;;;1.38;;
47519;SDS011;33252;48.122;11.538;2023-07-31T10:37:31;2.97;;;1.73;;
47519;SDS011;33252;48.122;11.538;2023-07-31T10:40:04;7.10;;;4.05;;
47519;SDS011;33252;48.122;11.538;2023-07-31T10:42:49;3.38;;;1.40;;
47519;SDS011;33252;48.122;11.538;2023-07-31T10:45:35;2.95;;;1.80;;
47519;SDS011;33252;48.122;11.538;2023-07-31T10:48:07;3.85;;;1.30;;
47519;SDS011;33252;48.122;11.538;2023-07-31T10:50:38;8.57;;;3.38;;
47519;SDS011;33252;48.122;11.538;2023-07-31T10:53:10;5.30;;;1.25;;
47519;SDS011;33252;48.122;11.538;2023-07-31T10:56:07;4.28;;;1.35;;
47519;SDS011;33252;48.122;11.538;2023-07-31T10:58:36;2.15;;;1.52;;
47519;SDS011;33252;48.122;11.538;2023-07-31T11:01:03;6.85;;;1.70;;
47519;SDS011;33252;48.122;11.538;2023-07-31T11:03:43;4.20;;;2.17;;
47519;SDS011;33252;48.122;11.538;2023-07-31T11:06:18;3.92;;;1.38;;
47519;SDS011;33252;48.122;11.538;2023-07-31T11:08:45;4.70;;;1.67;;
47519;SDS011;33252;48.122;11.538;2023-07-31T11:11:12;4.57;;;1.73;;
47519;SDS011;33252;48.122;11.538;2023-07-31T11:13:40;5.22;;;1.92;;
47519;SDS011;33252;48.122;11.538;2023-07-31T11:16:06;4.78;;;1.42;;
47519;SDS011;33252;48.122;11.538;2023-07-31T11:18:32;2.28;;;1.05;;
47519;SDS011;33252;48.122;11.538;2023-07-31T11:20:58;3.53;;;1.33;;
47519;SDS011;33252;48.122;11.538;2023-07-31T11:23:24;3.70;;;1.60;;
47519;SDS011;33252;48.122;11.538;2023-07-31T11:25:49;4.70;;;1.65;;
47519;SDS011;33252;48.122;11.538;2023-07-31T11:28:16;3.70;;;1.40;;
47519;SDS011;33252;48.122;11.538;2023-07-31T11:30:44;3.88;;;1.77;;
47519;SDS011;33252;48.122;11.538;2023-07-31T11:33:11;3.92;;;1.35;;
47519;SDS011;33252;48.122;11.538;2023-07-31T11:35:45;5.57;;;1.75;;
47519;SDS011;33252;48.122;11.538;2023-07-31T11:38:12;4.05;;;1.38;;
47519;SDS011;33252;48.122;11.538;2023-07-31T11:40:49;2.85;;;1.00;;
47519;SDS011;33252;48.122;11.538;2023-07-31T11:43:14;3.25;;;1.27;;
47519;SDS011;33252;48.122;11.538;2023-07-31T11:45:44;3.42;;;1.58;;
47519;SDS011;33252;48.122;11.538;2023-07-31T11:48:23;4.72;;;1.95;;
47519;SDS011;33252;48.122;11.538;2023-07-31T11:50:52;2.45;;;1.15;;
47519;SDS011;33252;48.122;11.538;2023-07-31T11:54:04;3.38;;;1.15;;
47519;SDS011;33252;48.122;11.538;2023-07-31T11:56:07;3.60;;;1.63;;
47519;SDS011;33252;48.122;11.538;2023-07-31T11:58:36;2.38;;;1.30;;
47519;SDS011;33252;48.122;11.538;2023-07-31T12:01:03;1.92;;;1.35;;
47519;SDS011;33252;48.122;11.538;2023-07-31T12:03:29;7.57;;;1.55;;
47519;SDS011;33252;48.122;11.538;2023-07-31T12:05:57;5.47;;;2.08;;
47519;SDS011;33252;48.122;11.538;2023-07-31T12:08:24;4.18;;;1.40;;
47519;SDS011;33252;48.122;11.538;2023-07-31T12:10:50;2.28;;;1.08;;
47519;SDS011;33252;48.122;11.538;2023-07-31T12:13:20;3.75;;;1.17;;
47519;SDS011;33252;48.122;11.538;2023-07-31T12:15:54;3.05;;;1.42;;
47519;SDS011;33252;48.122;11.538;2023-07-31T12:18:22;2.63;;;1.25;;
47519;SDS011;33252;48.122;11.538;2023-07-31T12:20:53;5.43;;;1.80;;
47519;SDS011;33252;48.122;11.538;2023-07-31T12:23:24;3.13;;;1.45;;
47519;SDS011;33252;48.122;11.538;2023-07-31T12:26:04;3.58;;;1.77;;
47519;SDS011;33252;48.122;11.538;2023-07-31T12:28:40;3.47;;;1.20;;
47519;SDS011;33252;48.122;11.538;2023-07-31T12:31:08;3.47;;;1.50;;
47519;SDS011;33252;48.122;11.538;2023-07-31T12:33:36;2.38;;;1.33;;
47519;SDS011;33252;48.122;11.538;2023-07-31T12:36:04;3.38;;;1.08;;
47519;SDS011;33252;48.122;11.538;2023-07-31T12:38:33;2.75;;;1.25;;
47519;SDS011;33252;48.122;11.538;2023-07-31T12:40:59;3.40;;;1.20;;
47519;SDS011;33252;48.122;11.538;2023-07-31T12:43:25;3.38;;;1.48;;
47519;SDS011;33252;48.122;11.538;2023-07-31T12:45:50;3.92;;;1.23;;
47519;SDS011;33252;48.122;11.538;2023-07-31T12:48:16;2.97;;;1.50;;
47519;SDS011;33252;48.122;11.538;2023-07-31T12:50:42;3.35;;;1.17;;
47519;SDS011;33252;48.122;11.538;2023-07-31T12:53:08;3.15;;;1.10;;
47519;SDS011;33252;48.122;11.538;2023-07-31T12:55:33;2.20;;;1.40;;
47519;SDS011;33252;48.122;11.538;2023-07-31T12:58:00;2.72;;;1.40;;
47519;SDS011;33252;48.122;11.538;2023-07-31T13:00:26;3.30;;;1.10;;
47519;SDS011;33252;48.122;11.538;2023-07-31T13:02:52;3.13;;;1.35;;
47519;SDS011;33252;48.122;11.538;2023-07-31T13:05:17;1.90;;;1.58;;
47519;SDS011;33252;48.122;11.538;2023-07-31T13:07:44;2.83;;;1.00;;
47519;SDS011;33252;48.122;11.538;2023-07-31T13:10:10;3.08;;;1.15;;
47519;SDS011;33252;48.122;11.538;2023-07-31T13:12:36;2.85;;;1.48;;
47519;SDS011;33252;48.122;11.538;2023-07-31T13:15:02;3.72;;;1.40;;
47519;SDS011;33252;48.122;11.538;2023-07-31T13:17:29;2.63;;;1.27;;
47519;SDS011;33252;48.122;11.538;2023-07-31T13:19:54;1.40;;;1.27;;
47519;SDS011;33252;48.122;11.538;2023-07-31T13:22:20;1.75;;;1.00;;
47519;SDS011;33252;48.122;11.538;2023-07-31T13:24:46;2.83;;;1.02;;
47519;SDS011;33252;48.122;11.538;2023-07-31T13:27:11;1.48;;;0.73;;
47519;SDS011;33252;48.122;11.538;2023-07-31T13:29:37;1.90;;;1.40;;
47519;SDS011;33252;48.122;11.538;2023-07-31T13:32:03;4.70;;;1.20;;
47519;SDS011;33252;48.122;11.538;2023-07-31T13:34:28;2.38;;;1.30;;
47519;SDS011;33252;48.122;11.538;2023-07-31T13:36:54;2.25;;;1.30;;
47519;SDS011;33252;48.122;11.538;2023-07-31T13:39:21;3.72;;;1.30;;
47519;SDS011;33252;48.122;11.538;2023-07-31T13:41:47;3.22;;;1.25;;
47519;SDS011;33252;48.122;11.538;2023-07-31T13:44:12;4.63;;;1.77;;
47519;SDS011;33252;48.122;11.538;2023-07-31T13:46:38;3.30;;;1.02;;
47519;SDS011;33252;48.122;11.538;2023-07-31T13:49:03;3.00;;;1.50;;
47519;SDS011;33252;48.122;11.538;2023-07-31T13:51:29;2.03;;;1.25;;
47519;SDS011;33252;48.122;11.538;2023-07-31T13:53:55;3.42;;;1.40;;
47519;SDS011;33252;48.122;11.538;2023-07-31T13:56:20;2.42;;;1.25;;
47519;SDS011;33252;48.122;11.538;2023-07-31T13:58:46;3.80;;;1.08;;
47519;SDS011;33252;48.122;11.538;2023-07-31T14:01:12;2.72;;;1.70;;
47519;SDS011;33252;48.122;11.538;2023-07-31T14:03:37;3.00;;;0.98;;
47519;SDS011;33252;48.122;11.538;2023-07-31T14:06:03;4.80;;;1.25;;
47519;SDS011;33252;48.122;11.538;2023-07-31T14:08:29;2.58;;;0.88;;
47519;SDS011;33252;48.122;11.538;2023-07-31T14:10:55;2.72;;;0.95;;
47519;SDS011;33252;48.122;11.538;2023-07-31T14:13:21;2.55;;;0.90;;
47519;SDS011;33252;48.122;11.538;2023-07-31T14:15:47;3.13;;;0.88;;
47519;SDS011;33252;48.122;11.538;2023-07-31T14:18:13;2.03;;;0.90;;
47519;SDS011;33252;48.122;11.538;2023-07-31T14:20:39;4.38;;;1.65;;
47519;SDS011;33252;48.122;11.538;2023-07-31T14:23:04;3.40;;;1.13;;
47519;SDS011;33252;48.122;11.538;2023-07-31T14:25:30;2.88;;;1.10;;
47519;SDS011;33252;48.122;11.538;2023-07-31T14:27:56;4.18;;;1.27;;
47519;SDS011;33252;48.122;11.538;2023-07-31T14:30:22;3.13;;;1.40;;
47519;SDS011;33252;48.122;11.538;2023-07-31T14:32:48;1.70;;;1.10;;
47519;SDS011;33252;48.122;11.538;2023-07-31T14:35:13;1.63;;;1.13;;
47519;SDS011;33252;48.122;11.538;2023-07-31T14:37:40;4.18;;;1.10;;